createdAt,value
2017-07-08T00:00:13.036Z,50.7
2017-07-08T00:00:53.388Z,50.8
2017-07-08T00:01:34.032Z,51.4
2017-07-08T00:02:14.285Z,50.5
2017-07-08T00:02:54.529Z,50.2
2017-07-08T00:03:34.879Z,49.4
2017-07-08T00:04:15.014Z,50.8
2017-07-08T00:04:55.154Z,52.0
2017-07-08T00:05:35.793Z,50.3
2017-07-08T00:06:16.234Z,49.1
2017-07-08T00:06:56.881Z,49.5
2017-07-08T00:07:37.524Z,50.2
2017-07-08T00:08:17.869Z,48.9
2017-07-08T00:08:58.417Z,51.8
2017-07-08T00:09:38.871Z,50.7
2017-07-08T00:10:19.337Z,51.0
2017-07-08T00:11:00.078Z,48.6
2017-07-08T00:11:40.833Z,50.8
2017-07-08T00:12:21.078Z,52.2
2017-07-08T00:13:01.635Z,52.1
2017-07-08T00:13:41.889Z,50.8
2017-07-08T00:14:22.532Z,51.3
2017-07-08T00:15:03.174Z,51.1
2017-07-08T00:15:43.477Z,50.9
2017-07-08T00:16:24.020Z,49.3
2017-07-08T00:17:04.773Z,49.1
2017-07-08T00:17:44.919Z,50.7
2017-07-08T00:18:25.157Z,51.2
2017-07-08T00:19:05.798Z,52.6
2017-07-08T00:19:46.444Z,49.2
2017-07-08T00:20:26.993Z,49.5
2017-07-08T00:21:07.435Z,50.7
2017-07-08T00:21:47.781Z,51.4
2017-07-08T00:22:28.141Z,51.9
2017-07-08T00:23:08.483Z,51.3
2017-07-08T00:23:48.926Z,50.3
2017-07-08T00:24:28.962Z,50.1
2017-07-08T00:25:09.319Z,50.1
2017-07-08T00:25:49.562Z,51.8
2017-07-08T00:26:30.396Z,50.0
2017-07-08T00:27:10.554Z,51.2
2017-07-08T00:27:52.300Z,54.1
2017-07-08T00:28:32.946Z,52.8
2017-07-08T00:29:13.592Z,47.1
2017-07-08T00:29:53.849Z,49.6
2017-07-08T00:30:34.089Z,52.8
2017-07-08T00:31:14.352Z,51.6
2017-07-08T00:31:54.903Z,49.8
2017-07-08T00:32:35.042Z,51.0
2017-07-08T00:33:15.497Z,49.7
2017-07-08T00:33:55.834Z,50.9
2017-07-08T00:34:35.978Z,49.7
2017-07-08T00:35:15.923Z,48.8
2017-07-08T00:35:55.965Z,52.1
2017-07-08T00:36:36.015Z,54.3
2017-07-08T00:37:16.449Z,52.7
2017-07-08T00:37:56.803Z,54.8
2017-07-08T00:38:37.046Z,52.6
2017-07-08T00:39:17.588Z,49.3
2017-07-08T00:39:57.741Z,51.2
2017-07-08T00:40:38.285Z,50.3
2017-07-08T00:41:18.333Z,52.1
2017-07-08T00:41:58.571Z,53.0
2017-07-08T00:42:38.817Z,54.0
2017-07-08T00:43:19.548Z,54.0
2017-07-08T00:43:59.898Z,53.5
2017-07-08T00:44:40.460Z,54.3
2017-07-08T00:45:20.905Z,53.4
2017-07-08T00:46:01.769Z,53.5
2017-07-08T00:46:42.154Z,51.8
2017-07-08T00:47:22.503Z,52.3
2017-07-08T00:48:03.144Z,53.2
2017-07-08T00:48:43.587Z,54.1
2017-07-08T00:49:23.937Z,52.5
2017-07-08T00:50:03.978Z,52.0
2017-07-08T00:50:44.624Z,51.7
2017-07-08T00:51:24.765Z,51.8
2017-07-08T00:52:05.308Z,51.2
2017-07-08T00:52:46.150Z,51.6
2017-07-08T00:53:26.704Z,52.5
2017-07-08T00:54:07.148Z,51.6
2017-07-08T00:54:47.694Z,52.3
2017-07-08T00:55:28.144Z,52.9
2017-07-08T00:56:08.383Z,54.4
2017-07-08T00:56:49.049Z,53.6
2017-07-08T00:57:29.293Z,55.3
2017-07-08T00:58:09.739Z,53.5
2017-07-08T00:58:50.183Z,53.2
2017-07-08T00:59:30.329Z,52.7
2017-07-08T01:00:10.777Z,52.7
2017-07-08T01:00:51.526Z,53.8
2017-07-08T01:01:32.077Z,54.0
2017-07-08T01:02:12.322Z,53.7
2017-07-08T01:02:52.574Z,53.9
2017-07-08T01:03:32.912Z,54.0
2017-07-08T01:04:13.482Z,53.0
2017-07-08T01:04:53.437Z,54.7
2017-07-08T01:05:33.965Z,54.8
2017-07-08T01:06:14.010Z,52.1
2017-07-08T01:06:54.254Z,51.3
2017-07-08T01:07:34.801Z,49.7
2017-07-08T01:08:15.244Z,51.9
2017-07-08T01:08:55.796Z,54.6
2017-07-08T01:09:36.642Z,55.4
2017-07-08T01:10:17.195Z,56.2
2017-07-08T01:10:57.846Z,53.6
2017-07-08T01:11:38.408Z,55.0
2017-07-08T01:12:19.271Z,58.0
2017-07-08T01:12:59.916Z,56.3
2017-07-08T01:13:40.765Z,55.6
2017-07-08T01:14:21.506Z,55.8
2017-07-08T01:15:02.148Z,54.3
2017-07-08T01:15:43.003Z,54.9
2017-07-08T01:16:24.133Z,53.9
2017-07-08T01:17:04.688Z,54.2
2017-07-08T01:17:45.133Z,56.0
2017-07-08T01:18:25.290Z,56.9
2017-07-08T01:19:05.743Z,56.8
2017-07-08T01:19:45.989Z,54.7
2017-07-08T01:20:26.435Z,53.7
2017-07-08T01:21:06.281Z,53.3
2017-07-08T01:21:46.825Z,54.5
2017-07-08T01:22:26.972Z,55.0
2017-07-08T01:23:07.720Z,54.7
2017-07-08T01:23:48.370Z,55.6
2017-07-08T01:24:28.613Z,55.1
2017-07-08T01:25:09.056Z,55.9
2017-07-08T01:25:49.310Z,55.5
2017-07-08T01:26:30.307Z,52.9
2017-07-08T01:27:10.643Z,51.6
2017-07-08T01:27:50.892Z,54.2
2017-07-08T01:28:31.337Z,55.8
2017-07-08T01:29:11.785Z,54.2
2017-07-08T01:29:52.031Z,54.1
2017-07-08T01:30:32.377Z,54.6
2017-07-08T01:31:13.024Z,52.8
2017-07-08T01:31:53.176Z,53.3
2017-07-08T01:32:33.416Z,58.1
2017-07-08T01:33:15.773Z,57.1
2017-07-08T01:33:56.311Z,55.0
2017-07-08T01:34:36.257Z,54.3
2017-07-08T01:35:16.706Z,54.0
2017-07-08T01:35:56.747Z,54.4
2017-07-08T01:36:36.698Z,56.3
2017-07-08T01:37:16.841Z,54.7
2017-07-08T01:37:57.285Z,54.0
2017-07-08T01:38:37.438Z,54.7
2017-07-08T01:39:17.886Z,55.2
2017-07-08T01:39:58.228Z,57.4
2017-07-08T01:40:38.582Z,57.3
2017-07-08T01:41:18.828Z,57.6
2017-07-08T01:41:59.180Z,56.2
2017-07-08T01:42:39.429Z,55.3
2017-07-08T01:43:19.861Z,57.5
2017-07-08T01:44:00.207Z,57.9
2017-07-08T01:44:40.746Z,55.6
2017-07-08T01:45:20.992Z,54.3
2017-07-08T01:46:01.446Z,52.4
2017-07-08T01:46:42.015Z,54.0
2017-07-08T01:47:22.265Z,56.6
2017-07-08T01:48:02.705Z,58.5
2017-07-08T01:48:43.249Z,57.5
2017-07-08T01:49:23.489Z,56.3
2017-07-08T01:50:03.932Z,58.0
2017-07-08T01:50:44.375Z,58.1
2017-07-08T01:51:24.520Z,58.0
2017-07-08T01:52:05.058Z,57.4
2017-07-08T01:52:45.591Z,57.0
2017-07-08T01:53:25.837Z,57.7
2017-07-08T01:54:06.077Z,59.0
2017-07-08T01:54:46.422Z,54.5
2017-07-08T01:55:26.868Z,56.2
2017-07-08T01:56:07.006Z,55.7
2017-07-08T01:56:47.465Z,55.0
2017-07-08T01:57:27.806Z,55.9
2017-07-08T01:58:08.447Z,58.7
2017-07-08T01:58:49.093Z,58.4
2017-07-08T01:59:29.431Z,57.0
2017-07-08T02:00:09.785Z,56.1
2017-07-08T02:00:50.327Z,57.6
2017-07-08T02:01:30.270Z,56.9
2017-07-08T02:02:10.714Z,58.0
2017-07-08T02:02:51.458Z,59.0
2017-07-08T02:03:31.501Z,58.9
2017-07-08T02:04:11.843Z,56.5
2017-07-08T02:04:52.085Z,55.9
2017-07-08T02:05:32.716Z,56.1
2017-07-08T02:06:12.666Z,56.0
2017-07-08T02:06:52.605Z,56.2
2017-07-08T02:07:32.747Z,56.6
2017-07-08T02:08:13.178Z,58.8
2017-07-08T02:08:53.819Z,58.8
2017-07-08T02:09:34.367Z,60.8
2017-07-08T02:10:14.710Z,59.3
2017-07-08T02:10:54.850Z,57.1
2017-07-08T02:11:35.206Z,55.7
2017-07-08T02:12:15.845Z,57.7
2017-07-08T02:12:56.092Z,56.6
2017-07-08T02:13:36.431Z,57.1
2017-07-08T02:14:16.774Z,58.1
2017-07-08T02:14:56.911Z,56.4
2017-07-08T02:15:37.455Z,56.2
2017-07-08T02:16:17.496Z,56.1
2017-07-08T02:16:57.952Z,59.5
2017-07-08T02:17:38.395Z,59.8
2017-07-08T02:18:18.753Z,55.8
2017-07-08T02:18:59.512Z,56.9
2017-07-08T02:19:40.353Z,57.2
2017-07-08T02:20:20.529Z,56.6
2017-07-08T02:21:00.966Z,57.9
2017-07-08T02:21:41.408Z,56.6
2017-07-08T02:22:22.256Z,56.0
2017-07-08T02:23:02.201Z,58.3
2017-07-08T02:23:42.544Z,56.4
2017-07-08T02:24:22.789Z,57.3
2017-07-08T02:25:02.733Z,58.3
2017-07-08T02:25:42.869Z,59.2
2017-07-08T02:26:23.221Z,56.9
2017-07-08T02:27:03.258Z,60.9
2017-07-08T02:27:43.702Z,60.1
2017-07-08T02:28:24.140Z,56.5
2017-07-08T02:29:04.581Z,58.1
2017-07-08T02:29:44.932Z,59.6
2017-07-08T02:30:25.370Z,59.1
2017-07-08T02:31:05.609Z,60.9
2017-07-08T02:31:46.359Z,61.0
2017-07-08T02:32:26.400Z,60.4
2017-07-08T02:33:06.840Z,60.2
2017-07-08T02:33:47.283Z,58.0
2017-07-08T02:34:27.124Z,58.2
2017-07-08T02:35:07.565Z,58.0
2017-07-08T02:35:47.910Z,55.0
2017-07-08T02:36:28.367Z,55.0
2017-07-08T02:37:08.683Z,55.4
2017-07-08T02:37:48.928Z,55.2
2017-07-08T02:38:29.265Z,59.9
2017-07-08T02:39:09.705Z,60.0
2017-07-08T02:39:50.045Z,57.7
2017-07-08T02:40:31.088Z,59.5
2017-07-08T02:41:11.731Z,58.6
2017-07-08T02:41:51.968Z,64.2
2017-07-08T02:42:32.312Z,62.5
2017-07-08T02:43:12.652Z,62.0
2017-07-08T02:43:52.892Z,66.3
2017-07-08T02:44:33.734Z,65.2
2017-07-08T02:45:14.083Z,63.0
2017-07-08T02:45:54.522Z,63.7
2017-07-08T02:46:34.862Z,62.5
2017-07-08T02:47:14.903Z,63.2
2017-07-08T02:47:55.041Z,67.3
2017-07-08T02:48:35.381Z,64.4
2017-07-08T02:49:15.421Z,63.7
2017-07-08T02:49:55.466Z,64.5
2017-07-08T02:50:35.608Z,65.5
2017-07-08T02:51:15.946Z,63.7
2017-07-08T02:51:56.196Z,62.8
2017-07-08T02:52:36.239Z,62.2
2017-07-08T02:53:16.585Z,62.8
2017-07-08T02:53:57.120Z,60.9
2017-07-08T02:54:37.276Z,60.8
2017-07-08T02:55:17.416Z,62.2
2017-07-08T02:55:57.964Z,64.2
2017-07-08T02:56:38.330Z,63.9
2017-07-08T02:57:18.880Z,62.8
2017-07-08T02:57:59.233Z,61.5
2017-07-08T02:58:39.271Z,61.2
2017-07-08T02:59:19.819Z,64.9
2017-07-08T02:59:59.758Z,67.0
2017-07-08T03:00:40.397Z,67.8
2017-07-08T03:01:20.731Z,66.3
2017-07-08T03:02:01.481Z,67.3
2017-07-08T03:02:41.442Z,67.0
2017-07-08T03:03:21.687Z,68.4
2017-07-08T03:04:02.046Z,63.7
2017-07-08T03:04:42.089Z,64.0
2017-07-08T03:05:22.141Z,64.0
2017-07-08T03:06:02.483Z,66.5
2017-07-08T03:06:42.528Z,68.0
2017-07-08T03:07:22.873Z,62.5
2017-07-08T03:08:03.117Z,64.7
2017-07-08T03:08:43.362Z,64.5
2017-07-08T03:09:23.903Z,67.2
2017-07-08T03:10:04.043Z,62.1
2017-07-08T03:10:44.498Z,63.9
2017-07-08T03:11:24.944Z,68.2
2017-07-08T03:12:05.084Z,64.7
2017-07-08T03:12:45.622Z,65.7
2017-07-08T03:13:26.079Z,65.5
2017-07-08T03:14:06.521Z,64.1
2017-07-08T03:14:47.066Z,65.3
2017-07-08T03:15:27.114Z,64.8
2017-07-08T03:16:07.156Z,65.3
2017-07-08T03:16:47.621Z,67.3
2017-07-08T03:17:27.857Z,67.3
2017-07-08T03:18:07.902Z,66.8
2017-07-08T03:18:48.143Z,65.8
2017-07-08T03:19:28.280Z,66.6
2017-07-08T03:20:08.728Z,66.3
2017-07-08T03:20:48.871Z,64.8
2017-07-08T03:21:29.119Z,65.9
2017-07-08T03:22:09.455Z,64.9
2017-07-08T03:22:50.104Z,65.1
2017-07-08T03:23:30.149Z,68.8
2017-07-08T03:24:10.493Z,66.1
2017-07-08T03:24:50.734Z,65.5
2017-07-08T03:25:30.672Z,63.6
2017-07-08T03:26:11.222Z,66.6
2017-07-08T03:26:51.368Z,70.3
2017-07-08T03:27:31.413Z,69.2
2017-07-08T03:28:11.753Z,70.1
2017-07-08T03:28:51.599Z,67.5
2017-07-08T03:29:31.939Z,64.6
2017-07-08T03:30:12.785Z,67.9
2017-07-08T03:30:53.539Z,67.2
2017-07-08T03:31:34.077Z,68.7
2017-07-08T03:32:14.226Z,68.4
2017-07-08T03:32:54.662Z,69.6
2017-07-08T03:33:35.517Z,70.3
2017-07-08T03:34:15.859Z,66.7
2017-07-08T03:34:56.208Z,65.9
2017-07-08T03:35:36.954Z,66.2
2017-07-08T03:36:17.398Z,67.8
2017-07-08T03:36:58.004Z,67.7
2017-07-08T03:37:38.591Z,66.4
2017-07-08T03:38:19.935Z,66.3
2017-07-08T03:39:00.384Z,65.0
2017-07-08T03:39:40.922Z,66.2
2017-07-08T03:40:20.969Z,67.2
2017-07-08T03:41:01.422Z,65.4
2017-07-08T03:41:42.055Z,65.8
2017-07-08T03:42:22.098Z,67.9
2017-07-08T03:43:02.443Z,65.0
2017-07-08T03:43:42.888Z,65.0
2017-07-08T03:44:23.235Z,66.4
2017-07-08T03:45:03.280Z,63.6
2017-07-08T03:45:43.422Z,65.6
2017-07-08T03:46:23.765Z,66.2
2017-07-08T03:47:03.713Z,64.5
2017-07-08T03:47:44.215Z,65.8
2017-07-08T03:48:24.364Z,66.0
2017-07-08T03:49:04.615Z,65.4
2017-07-08T03:49:44.765Z,63.4
2017-07-08T03:50:24.910Z,64.8
2017-07-08T03:51:05.468Z,64.6
2017-07-08T03:51:45.405Z,63.9
2017-07-08T03:52:25.348Z,63.8
2017-07-08T03:53:05.698Z,62.4
2017-07-08T03:53:46.648Z,64.7
2017-07-08T03:54:27.100Z,65.6
2017-07-08T03:55:07.535Z,64.3
2017-07-08T03:55:47.887Z,63.7
2017-07-08T03:56:28.129Z,64.7
2017-07-08T03:57:08.182Z,61.0
2017-07-08T03:57:48.626Z,61.0
2017-07-08T03:58:29.076Z,59.8
2017-07-08T03:59:09.413Z,60.3
2017-07-08T03:59:49.955Z,62.1
2017-07-08T04:00:30.913Z,63.0
2017-07-08T04:01:11.455Z,65.0
2017-07-08T04:01:51.748Z,61.9
2017-07-08T04:02:31.946Z,60.6
2017-07-08T04:03:12.089Z,60.6
2017-07-08T04:03:52.842Z,59.2
2017-07-08T04:04:33.289Z,60.5
2017-07-08T04:05:13.740Z,61.2
2017-07-08T04:05:54.091Z,61.7
2017-07-08T04:06:34.453Z,58.9
2017-07-08T04:07:14.899Z,59.3
2017-07-08T04:07:55.235Z,59.7
2017-07-08T04:08:36.199Z,58.9
2017-07-08T04:09:16.836Z,58.3
2017-07-08T04:09:57.089Z,55.9
2017-07-08T04:10:37.732Z,54.6
2017-07-08T04:11:17.973Z,57.7
2017-07-08T04:11:58.128Z,57.7
2017-07-08T04:12:38.773Z,57.1
2017-07-08T04:13:19.125Z,56.9
2017-07-08T04:13:59.464Z,56.2
2017-07-08T04:14:40.124Z,58.3
2017-07-08T04:15:20.380Z,58.5
2017-07-08T04:16:00.830Z,60.6
2017-07-08T04:16:40.990Z,57.1
2017-07-08T04:17:21.224Z,54.8
2017-07-08T04:18:01.367Z,55.9
2017-07-08T04:18:41.406Z,56.7
2017-07-08T04:19:21.560Z,56.8
2017-07-08T04:20:01.601Z,56.1
2017-07-08T04:20:41.745Z,52.4
2017-07-08T04:21:22.094Z,51.2
2017-07-08T04:22:02.038Z,55.4
2017-07-08T04:22:41.985Z,56.9
2017-07-08T04:23:22.021Z,57.1
2017-07-08T04:24:02.173Z,55.9
2017-07-08T04:24:42.821Z,52.8
2017-07-08T04:25:23.563Z,53.6
2017-07-08T04:26:03.914Z,52.3
2017-07-08T04:26:44.761Z,51.8
2017-07-08T04:27:25.012Z,51.0
2017-07-08T04:28:05.360Z,51.7
2017-07-08T04:28:45.310Z,53.5
2017-07-08T04:29:25.854Z,53.6
2017-07-08T04:30:05.901Z,53.5
2017-07-08T04:30:45.950Z,52.0
2017-07-08T04:31:26.587Z,52.8
2017-07-08T04:32:07.132Z,52.3
2017-07-08T04:32:47.780Z,50.6
2017-07-08T04:33:28.117Z,50.4
2017-07-08T04:34:08.067Z,48.5
2017-07-08T04:34:48.315Z,49.3
2017-07-08T04:35:28.566Z,50.3
2017-07-08T04:36:09.112Z,51.1
2017-07-08T04:36:49.763Z,50.6
2017-07-08T04:37:30.403Z,50.0
2017-07-08T04:38:10.550Z,48.4
2017-07-08T04:38:51.293Z,48.1
2017-07-08T04:39:32.040Z,47.6
2017-07-08T04:40:12.497Z,48.9
2017-07-08T04:40:52.761Z,48.2
2017-07-08T04:41:33.213Z,47.7
2017-07-08T04:42:13.548Z,47.8
2017-07-08T04:42:54.105Z,46.1
2017-07-08T04:43:34.248Z,43.6
2017-07-08T04:44:14.404Z,44.2
2017-07-08T04:44:54.752Z,45.1
2017-07-08T04:45:34.900Z,45.9
2017-07-08T04:46:14.944Z,44.8
2017-07-08T04:46:55.282Z,44.2
2017-07-08T04:47:35.332Z,43.3
2017-07-08T04:48:16.032Z,43.5
2017-07-08T04:48:56.322Z,44.0
2017-07-08T04:49:36.775Z,41.9
2017-07-08T04:50:17.418Z,42.6
2017-07-08T04:50:57.773Z,41.2
2017-07-08T04:51:38.110Z,42.1
2017-07-08T04:52:18.453Z,40.8
2017-07-08T04:52:58.798Z,42.0
2017-07-08T04:53:39.653Z,42.2
2017-07-08T04:54:20.188Z,42.0
2017-07-08T04:55:00.821Z,40.1
2017-07-08T04:55:41.274Z,39.3
2017-07-08T04:56:21.223Z,40.3
2017-07-08T04:57:01.397Z,40.8
2017-07-08T04:57:41.844Z,39.4
2017-07-08T04:58:22.000Z,39.2
2017-07-08T04:59:02.544Z,37.6
2017-07-08T04:59:42.798Z,40.1
2017-07-08T05:00:23.210Z,38.5
2017-07-08T05:01:03.393Z,37.8
2017-07-08T05:01:44.145Z,37.6
2017-07-08T05:02:24.484Z,36.5
2017-07-08T05:03:04.429Z,37.0
2017-07-08T05:03:44.777Z,38.1
2017-07-08T05:04:25.317Z,37.1
2017-07-08T05:05:05.569Z,37.3
2017-07-08T05:05:45.913Z,37.3
2017-07-08T05:06:26.267Z,35.2
2017-07-08T05:07:06.304Z,35.1
2017-07-08T05:07:46.845Z,36.9
2017-07-08T05:08:27.194Z,34.7
2017-07-08T05:09:08.038Z,34.5
2017-07-08T05:09:48.083Z,34.7
2017-07-08T05:10:28.337Z,33.5
2017-07-08T05:11:08.689Z,32.7
2017-07-08T05:11:49.030Z,31.6
2017-07-08T05:12:29.281Z,32.0
2017-07-08T05:13:09.329Z,34.0
2017-07-08T05:13:49.772Z,33.3
2017-07-08T05:14:29.815Z,31.3
2017-07-08T05:15:10.873Z,31.7
2017-07-08T05:15:51.520Z,31.8
2017-07-08T05:16:32.073Z,29.4
2017-07-08T05:17:12.527Z,29.8
2017-07-08T05:17:52.773Z,29.2
2017-07-08T05:18:33.222Z,31.1
2017-07-08T05:19:13.570Z,32.5
2017-07-08T05:19:54.111Z,31.6
2017-07-08T05:20:34.558Z,31.4
2017-07-08T05:21:14.698Z,29.9
2017-07-08T05:21:55.144Z,30.9
2017-07-08T05:22:35.494Z,31.3
2017-07-08T05:23:15.893Z,31.8
2017-07-08T05:23:56.191Z,32.8
2017-07-08T05:24:36.329Z,31.6
2017-07-08T05:25:16.971Z,30.7
2017-07-08T05:25:57.423Z,30.4
2017-07-08T05:26:37.781Z,30.2
2017-07-08T05:27:17.929Z,30.6
2017-07-08T05:27:57.770Z,30.8
2017-07-08T05:28:38.622Z,29.9
2017-07-08T05:29:18.858Z,29.9
2017-07-08T05:29:59.509Z,30.8
2017-07-08T05:30:39.949Z,30.0
2017-07-08T05:31:20.012Z,28.2
2017-07-08T05:32:00.397Z,27.9
2017-07-08T05:32:40.950Z,28.0
2017-07-08T05:33:21.209Z,26.6
2017-07-08T05:34:01.556Z,25.9
2017-07-08T05:34:42.201Z,25.1
2017-07-08T05:35:22.547Z,26.6
2017-07-08T05:36:02.799Z,26.9
2017-07-08T05:36:42.760Z,27.6
2017-07-08T05:37:23.307Z,27.2
2017-07-08T05:38:04.056Z,26.2
2017-07-08T05:38:44.101Z,26.1
2017-07-08T05:39:24.547Z,25.9
2017-07-08T05:40:05.293Z,25.5
2017-07-08T05:40:45.447Z,24.7
2017-07-08T05:41:25.295Z,25.6
2017-07-08T05:42:05.450Z,26.0
2017-07-08T05:42:46.394Z,25.2
2017-07-08T05:43:26.737Z,25.0
2017-07-08T05:44:08.860Z,27.0
2017-07-08T05:44:49.112Z,26.4
2017-07-08T05:45:29.365Z,24.5
2017-07-08T05:46:09.905Z,23.2
2017-07-08T05:46:50.251Z,24.2
2017-07-08T05:47:30.892Z,25.1
2017-07-08T05:48:10.933Z,25.5
2017-07-08T05:48:51.282Z,25.3
2017-07-08T05:49:31.827Z,24.6
2017-07-08T05:50:12.071Z,24.3
2017-07-08T05:50:52.720Z,24.2
2017-07-08T05:51:32.660Z,23.4
2017-07-08T05:52:12.904Z,23.9
2017-07-08T05:52:53.355Z,25.6
2017-07-08T05:53:34.098Z,25.2
2017-07-08T05:54:14.663Z,24.7
2017-07-08T05:54:54.710Z,24.8
2017-07-08T05:55:35.251Z,25.2
2017-07-08T05:56:15.508Z,24.0
2017-07-08T05:56:56.169Z,23.8
2017-07-08T05:57:36.814Z,24.9
2017-07-08T05:58:16.968Z,25.3
2017-07-08T05:58:57.408Z,24.9
2017-07-08T05:59:37.374Z,23.6
2017-07-08T06:00:17.917Z,23.6
2017-07-08T06:00:58.063Z,23.7
2017-07-08T06:01:38.413Z,23.8
2017-07-08T06:02:18.959Z,22.9
2017-07-08T06:02:59.232Z,23.8
2017-07-08T06:03:39.776Z,24.3
2017-07-08T06:04:20.614Z,22.7
2017-07-08T06:05:00.884Z,24.0
2017-07-08T06:05:41.832Z,24.3
2017-07-08T06:06:22.082Z,25.2
2017-07-08T06:07:02.229Z,25.1
2017-07-08T06:07:42.275Z,24.7
2017-07-08T06:08:23.010Z,23.8
2017-07-08T06:09:03.561Z,23.6
2017-07-08T06:09:44.113Z,23.9
2017-07-08T06:10:24.561Z,24.7
2017-07-08T06:11:05.007Z,23.7
2017-07-08T06:11:45.462Z,24.7
2017-07-08T06:12:25.710Z,24.6
2017-07-08T06:13:06.256Z,23.5
2017-07-08T06:13:46.703Z,23.0
2017-07-08T06:14:27.050Z,23.5
2017-07-08T06:15:07.298Z,23.2
2017-07-08T06:15:47.257Z,21.7
2017-07-08T06:16:27.818Z,21.4
2017-07-08T06:17:07.978Z,22.1
2017-07-08T06:17:47.921Z,22.1
2017-07-08T06:18:27.968Z,21.8
2017-07-08T06:19:08.323Z,21.6
2017-07-08T06:19:48.964Z,20.5
2017-07-08T06:20:28.916Z,20.4
2017-07-08T06:21:09.158Z,20.9
2017-07-08T06:21:50.009Z,20.5
2017-07-08T06:22:30.556Z,20.0
2017-07-08T06:23:10.805Z,20.2
2017-07-08T06:23:50.852Z,21.0
2017-07-08T06:24:31.403Z,20.5
2017-07-08T06:25:11.853Z,21.0
2017-07-08T06:25:51.788Z,23.4
2017-07-08T06:26:32.955Z,25.1
2017-07-08T06:27:13.400Z,23.6
2017-07-08T06:27:53.853Z,22.0
2017-07-08T06:28:34.600Z,21.5
2017-07-08T06:29:15.048Z,21.6
2017-07-08T06:29:55.190Z,21.8
2017-07-08T06:30:35.331Z,21.3
2017-07-08T06:31:15.884Z,20.2
2017-07-08T06:31:56.025Z,19.5
2017-07-08T06:32:36.573Z,19.9
2017-07-08T06:33:17.035Z,20.3
2017-07-08T06:33:57.190Z,21.0
2017-07-08T06:34:37.535Z,21.1
2017-07-08T06:35:18.095Z,19.8
2017-07-08T06:35:58.445Z,21.3
2017-07-08T06:36:38.832Z,22.4
2017-07-08T06:37:19.182Z,21.6
2017-07-08T06:37:59.737Z,21.8
2017-07-08T06:38:40.085Z,22.4
2017-07-08T06:39:20.136Z,21.9
2017-07-08T06:40:00.276Z,21.9
2017-07-08T06:40:40.625Z,22.0
2017-07-08T06:41:21.280Z,19.0
2017-07-08T06:42:01.835Z,20.4
2017-07-08T06:42:42.389Z,20.2
2017-07-08T06:43:22.842Z,19.1
2017-07-08T06:44:02.795Z,19.2
2017-07-08T06:44:43.037Z,19.0
2017-07-08T06:45:23.712Z,17.6
2017-07-08T06:46:04.160Z,16.5
2017-07-08T06:46:44.311Z,17.7
2017-07-08T06:47:24.461Z,18.4
2017-07-08T06:48:04.509Z,19.0
2017-07-08T06:48:45.467Z,18.6
2017-07-08T06:49:25.915Z,17.6
2017-07-08T06:50:06.586Z,17.3
2017-07-08T06:50:46.941Z,17.4
2017-07-08T06:51:27.088Z,16.5
2017-07-08T06:52:07.335Z,17.6
2017-07-08T06:52:47.985Z,16.8
2017-07-08T06:53:28.330Z,15.7
2017-07-08T06:54:08.775Z,16.5
2017-07-08T06:54:49.123Z,15.3
2017-07-08T06:55:29.562Z,14.3
2017-07-08T06:56:09.809Z,16.3
2017-07-08T06:56:50.360Z,15.3
2017-07-08T06:57:30.809Z,14.9
2017-07-08T06:58:11.066Z,14.8
2017-07-08T06:58:51.314Z,15.7
2017-07-08T06:59:31.461Z,16.4
2017-07-08T07:00:12.111Z,17.2
2017-07-08T07:00:52.373Z,17.5
2017-07-08T07:01:32.612Z,16.7
2017-07-08T07:02:12.961Z,16.8
2017-07-08T07:02:52.710Z,16.9
2017-07-08T07:03:32.958Z,18.2
2017-07-08T07:04:13.211Z,17.7
2017-07-08T07:04:53.660Z,17.6
2017-07-08T07:05:33.810Z,18.0
2017-07-08T07:06:13.766Z,18.1
2017-07-08T07:06:54.518Z,18.0
2017-07-08T07:07:34.876Z,20.1
2017-07-08T07:08:14.715Z,20.7
2017-07-08T07:08:55.165Z,17.9
2017-07-08T07:09:35.636Z,17.3
2017-07-08T07:10:15.755Z,17.7
2017-07-08T07:10:55.906Z,17.9
2017-07-08T07:11:36.151Z,18.7
2017-07-08T07:12:16.414Z,19.2
2017-07-08T07:12:56.762Z,18.2
2017-07-08T07:13:36.814Z,17.5
2017-07-08T07:14:16.964Z,18.1
2017-07-08T07:14:57.219Z,18.7
2017-07-08T07:15:37.571Z,19.9
2017-07-08T07:16:17.718Z,19.8
2017-07-08T07:16:58.082Z,19.0
2017-07-08T07:17:38.225Z,17.7
2017-07-08T07:18:18.477Z,17.7
2017-07-08T07:18:58.135Z,19.0
2017-07-08T07:19:38.288Z,18.9
2017-07-08T07:20:18.735Z,18.1
2017-07-08T07:20:58.993Z,17.6
2017-07-08T07:21:39.243Z,18.2
2017-07-08T07:22:19.889Z,17.8
2017-07-08T07:23:00.851Z,17.0
2017-07-08T07:23:41.307Z,17.3
2017-07-08T07:24:21.559Z,17.1
2017-07-08T07:25:01.963Z,17.4
2017-07-08T07:25:42.413Z,16.7
2017-07-08T07:26:22.662Z,17.1
2017-07-08T07:27:03.171Z,16.2
2017-07-08T07:27:43.836Z,15.5
2017-07-08T07:28:24.182Z,15.9
2017-07-08T07:29:04.636Z,16.9
2017-07-08T07:29:44.991Z,16.6
2017-07-08T07:30:25.138Z,14.5
2017-07-08T07:31:05.288Z,13.3
2017-07-08T07:31:45.736Z,11.7
2017-07-08T07:32:26.083Z,11.3
2017-07-08T07:33:06.737Z,11.6
2017-07-08T07:33:47.088Z,11.4
2017-07-08T07:34:27.747Z,11.1
2017-07-08T07:35:08.196Z,10.6
2017-07-08T07:35:48.358Z,10.1
2017-07-08T07:36:30.223Z,10.3
2017-07-08T07:37:10.675Z,9.5
2017-07-08T07:37:51.122Z,9.3
2017-07-08T07:38:31.474Z,9.7
2017-07-08T07:39:11.815Z,9.3
2017-07-08T07:39:52.061Z,9.5
2017-07-08T07:40:32.517Z,9.2
2017-07-08T07:41:12.154Z,9.0
2017-07-08T07:41:52.313Z,9.0
2017-07-08T07:42:32.811Z,9.1
2017-07-08T07:43:13.057Z,9.9
2017-07-08T07:43:53.404Z,9.9
2017-07-08T07:44:33.150Z,9.2
2017-07-08T07:45:13.609Z,8.6
2017-07-08T07:45:53.657Z,8.5
2017-07-08T07:46:34.219Z,9.7
2017-07-08T07:47:14.673Z,10.6
2017-07-08T07:47:54.623Z,11.5
2017-07-08T07:48:34.770Z,11.4
2017-07-08T07:49:14.916Z,11.2
2017-07-08T07:49:55.373Z,11.0
2017-07-08T07:50:35.726Z,10.3
2017-07-08T07:51:15.868Z,10.2
2017-07-08T07:51:55.920Z,10.3
2017-07-08T07:52:36.375Z,10.1
2017-07-08T07:53:16.916Z,10.6
2017-07-08T07:53:56.970Z,10.3
2017-07-08T07:54:37.331Z,10.7
2017-07-08T07:55:17.486Z,10.5
2017-07-08T07:55:57.532Z,9.4
2017-07-08T07:56:38.073Z,9.5
2017-07-08T07:57:19.036Z,9.6
2017-07-08T07:57:59.332Z,10.5
2017-07-08T07:58:39.526Z,10.6
2017-07-08T07:59:19.785Z,9.8
2017-07-08T08:00:00.533Z,9.0
2017-07-08T08:00:41.289Z,8.7
2017-07-08T08:01:21.627Z,9.6
2017-07-08T08:02:02.078Z,8.6
2017-07-08T08:02:42.331Z,8.8
2017-07-08T08:03:22.702Z,8.5
2017-07-08T08:04:02.755Z,8.2
2017-07-08T08:04:43.202Z,8.7
2017-07-08T08:05:23.483Z,8.7
2017-07-08T08:06:03.827Z,8.7
2017-07-08T08:06:44.299Z,8.4
2017-07-08T08:07:24.757Z,7.6
2017-07-08T08:08:05.298Z,8.5
2017-07-08T08:08:46.065Z,7.7
2017-07-08T08:09:26.917Z,8.5
2017-07-08T08:10:07.380Z,8.4
2017-07-08T08:10:48.038Z,8.0
2017-07-08T08:11:28.288Z,8.6
2017-07-08T08:12:08.445Z,8.2
2017-07-08T08:12:48.593Z,8.3
2017-07-08T08:13:29.048Z,8.7
2017-07-08T08:14:09.092Z,8.9
2017-07-08T08:14:49.241Z,8.6
2017-07-08T08:15:29.789Z,8.7
2017-07-08T08:16:10.435Z,8.0
2017-07-08T08:16:50.599Z,7.7
2017-07-08T08:17:30.946Z,8.1
2017-07-08T08:18:10.497Z,7.9
2017-07-08T08:18:50.744Z,8.5
2017-07-08T08:19:30.698Z,8.5
2017-07-08T08:20:10.941Z,7.8
2017-07-08T08:20:51.502Z,8.2
2017-07-08T08:21:31.754Z,8.1
2017-07-08T08:22:12.004Z,7.6
2017-07-08T08:22:52.554Z,7.4
2017-07-08T08:23:32.607Z,8.3
2017-07-08T08:24:12.960Z,8.3
2017-07-08T08:24:53.508Z,8.0
2017-07-08T08:25:33.457Z,7.9
2017-07-08T08:26:13.911Z,7.9
2017-07-08T08:26:54.167Z,7.5
2017-07-08T08:27:34.429Z,7.3
2017-07-08T08:28:14.686Z,6.9
2017-07-08T08:28:55.564Z,7.5
2017-07-08T08:29:36.010Z,7.5
2017-07-08T08:30:16.560Z,6.8
2017-07-08T08:30:56.715Z,6.3
2017-07-08T08:31:37.370Z,6.1
2017-07-08T08:32:17.534Z,6.1
2017-07-08T08:32:57.979Z,5.8
2017-07-08T08:33:38.429Z,5.6
2017-07-08T08:34:18.881Z,5.5
2017-07-08T08:34:59.339Z,5.8
2017-07-08T08:35:39.993Z,5.7
2017-07-08T08:36:20.258Z,5.1
2017-07-08T08:37:00.114Z,5.6
2017-07-08T08:37:40.311Z,5.7
2017-07-08T08:38:20.873Z,5.7
2017-07-08T08:39:01.533Z,5.8
2017-07-08T08:39:42.179Z,6.1
2017-07-08T08:40:22.430Z,6.0
2017-07-08T08:41:02.685Z,5.6
2017-07-08T08:41:43.248Z,6.0
2017-07-08T08:42:23.639Z,5.5
2017-07-08T08:43:04.303Z,6.2
2017-07-08T08:43:44.860Z,6.3
2017-07-08T08:44:25.116Z,5.4
2017-07-08T08:45:06.284Z,5.0
2017-07-08T08:45:46.146Z,5.5
2017-07-08T08:46:26.505Z,5.9
2017-07-08T08:47:06.756Z,6.1
2017-07-08T08:47:47.311Z,5.9
2017-07-08T08:48:28.265Z,5.3
2017-07-08T08:49:08.715Z,5.7
2017-07-08T08:49:49.386Z,5.3
2017-07-08T08:50:29.930Z,5.7
2017-07-08T08:51:10.486Z,5.9
2017-07-08T08:51:51.137Z,5.7
2017-07-08T08:52:31.997Z,6.1
2017-07-08T08:53:12.655Z,5.8
2017-07-08T08:53:53.000Z,5.6
2017-07-08T08:54:33.246Z,6.1
2017-07-08T08:55:13.426Z,6.0
2017-07-08T08:55:54.197Z,5.9
2017-07-08T08:56:34.248Z,5.6
2017-07-08T08:57:14.706Z,5.6
2017-07-08T08:57:55.152Z,5.5
2017-07-08T08:58:35.801Z,5.8
2017-07-08T08:59:16.173Z,6.1
2017-07-08T08:59:56.727Z,6.1